createdAt,value
2022-08-05T00:00:35.249Z,17.75
2022-08-05T00:02:51.505Z,17.76
2022-08-05T00:04:55.841Z,17.70
2022-08-05T00:06:58.028Z,17.75
2022-08-05T00:09:01.587Z,17.73
2022-08-05T00:11:20.221Z,17.67
2022-08-05T00:13:38.174Z,17.70
2022-08-05T00:15:57.674Z,17.77
2022-08-05T00:18:00.279Z,17.66
2022-08-05T00:20:05.061Z,17.64
2022-08-05T00:22:11.519Z,17.61
2022-08-05T00:24:18.881Z,17.61
2022-08-05T00:26:27.059Z,17.56
2022-08-05T00:28:29.713Z,17.56
2022-08-05T00:30:32.228Z,17.49
2022-08-05T00:32:34.667Z,17.56
2022-08-05T00:35:05.367Z,17.48
2022-08-05T00:37:11.599Z,17.48
2022-08-05T00:39:15.359Z,17.47
2022-08-05T00:41:46.738Z,17.45
2022-08-05T00:43:54.305Z,17.42
2022-08-05T00:45:56.374Z,17.33
2022-08-05T00:48:05.642Z,17.32
2022-08-05T00:50:09.583Z,17.33
2022-08-05T00:52:11.526Z,17.34
2022-08-05T00:54:14.054Z,17.33
2022-08-05T00:56:17.553Z,17.26
2022-08-05T00:58:27.397Z,17.23
2022-08-05T01:00:31.463Z,17.19
2022-08-05T01:02:33.496Z,17.19
2022-08-05T01:04:35.345Z,17.18
2022-08-05T01:06:37.411Z,17.19
2022-08-05T01:08:42.774Z,17.11
2022-08-05T01:10:59.730Z,17.18
2022-08-05T01:13:13.392Z,17.03
2022-08-05T01:15:36.742Z,17.07
2022-08-05T01:17:53.831Z,16.98
2022-08-05T01:20:28.285Z,17.04
2022-08-05T01:22:58.457Z,17.06
2022-08-05T01:25:23.213Z,17.01
2022-08-05T01:27:55.672Z,16.99
2022-08-05T01:30:04.064Z,16.90
2022-08-05T01:32:12.338Z,16.87
2022-08-05T01:34:22.578Z,16.83
2022-08-05T01:36:33.144Z,16.82
2022-08-05T01:38:37.986Z,16.77
2022-08-05T01:40:40.623Z,16.80
2022-08-05T01:42:44.720Z,16.85
2022-08-05T01:44:53.963Z,16.79
2022-08-05T01:46:59.064Z,16.74
2022-08-05T01:49:03.286Z,16.78
2022-08-05T01:51:30.022Z,16.77
2022-08-05T01:53:56.898Z,16.73
2022-08-05T01:56:04.289Z,16.74
2022-08-05T01:58:15.950Z,16.61
2022-08-05T02:00:19.052Z,16.72
2022-08-05T02:02:26.105Z,16.62
2022-08-05T02:04:35.417Z,16.70
2022-08-05T02:06:39.569Z,16.69
2022-08-05T02:08:54.861Z,16.74
2022-08-05T02:11:07.528Z,16.71
2022-08-05T02:13:18.383Z,16.68
2022-08-05T02:15:41.528Z,16.71
2022-08-05T02:18:31.228Z,16.70
2022-08-05T02:20:20.639Z,16.67
2022-08-05T02:22:30.135Z,16.71
2022-08-05T02:24:38.366Z,16.70
2022-08-05T02:26:53.882Z,16.68
2022-08-05T02:28:58.146Z,16.70
2022-08-05T02:31:14.744Z,16.66
2022-08-05T02:33:24.482Z,16.64
2022-08-05T02:35:50.983Z,16.59
2022-08-05T02:38:02.604Z,16.62
2022-08-05T02:40:05.864Z,16.59
2022-08-05T02:42:25.721Z,16.58
2022-08-05T02:44:30.416Z,16.60
2022-08-05T02:46:43.974Z,16.61
2022-08-05T02:49:00.726Z,16.54
2022-08-05T02:51:04.873Z,16.54
2022-08-05T02:53:07.042Z,16.49
2022-08-05T02:55:17.601Z,16.48
2022-08-05T02:58:11.605Z,16.53
2022-08-05T03:00:02.430Z,16.55
2022-08-05T03:02:05.595Z,16.50
2022-08-05T03:04:14.342Z,16.56
2022-08-05T03:06:57.160Z,16.50
2022-08-05T03:08:42.782Z,16.47
2022-08-05T03:11:54.000Z,16.53
2022-08-05T03:13:17.130Z,16.55
2022-08-05T03:15:20.805Z,16.53
2022-08-05T03:17:25.463Z,16.56
2022-08-05T03:19:34.400Z,16.53
2022-08-05T03:21:41.538Z,16.57
2022-08-05T03:23:53.558Z,16.59
2022-08-05T03:26:04.461Z,16.61
2022-08-05T03:28:19.816Z,16.65
2022-08-05T03:30:30.183Z,16.70
2022-08-05T03:32:36.899Z,16.76
2022-08-05T03:34:40.222Z,16.94
2022-08-05T03:36:43.206Z,17.10
2022-08-05T03:38:53.311Z,17.09
2022-08-05T03:40:57.779Z,17.20
2022-08-05T03:43:15.669Z,17.20
2022-08-05T03:45:23.619Z,17.34
2022-08-05T03:47:26.146Z,17.47
2022-08-05T03:49:51.303Z,17.56
2022-08-05T03:52:39.292Z,17.63
2022-08-05T03:56:06.027Z,17.81
2022-08-05T03:57:16.303Z,17.88
2022-08-05T03:59:29.197Z,18.21
2022-08-05T04:01:58.964Z,18.34
2022-08-05T04:04:10.190Z,18.56
2022-08-05T04:06:13.758Z,18.33
2022-08-05T04:08:30.005Z,18.50
2022-08-05T04:10:38.399Z,18.53
2022-08-05T04:14:43.245Z,18.89
2022-08-05T04:16:45.669Z,19.21
2022-08-05T04:18:47.631Z,19.15
2022-08-05T04:20:57.949Z,19.04
2022-08-05T04:22:59.920Z,19.01
2022-08-05T04:25:03.074Z,19.10
2022-08-05T04:27:06.684Z,19.68
2022-08-05T04:29:09.734Z,19.22
2022-08-05T04:31:11.826Z,19.26
2022-08-05T04:33:14.971Z,19.67
2022-08-05T04:35:17.582Z,19.91
2022-08-05T04:37:22.916Z,19.67
2022-08-05T04:39:43.612Z,19.72
2022-08-05T04:41:48.100Z,19.78
2022-08-05T04:43:52.845Z,20.16
2022-08-05T04:45:56.924Z,20.50
2022-08-05T04:48:10.280Z,20.59
2022-08-05T04:50:37.574Z,20.80
2022-08-05T04:52:42.691Z,21.42
2022-08-05T04:54:47.165Z,21.09
2022-08-05T04:56:57.483Z,20.75
2022-08-05T04:59:22.022Z,21.04
2022-08-05T05:02:08.337Z,20.79
2022-08-05T05:03:47.834Z,21.13
2022-08-05T05:06:40.040Z,21.41
2022-08-05T05:08:26.737Z,21.69
2022-08-05T05:10:47.208Z,21.78
2022-08-05T05:12:59.652Z,21.45
2022-08-05T05:15:04.608Z,21.76
2022-08-05T05:17:07.369Z,21.86
2022-08-05T05:19:23.430Z,21.97
2022-08-05T05:21:27.211Z,22.26
2022-08-05T05:23:39.452Z,21.98
2022-08-05T05:25:52.310Z,22.27
2022-08-05T05:27:56.308Z,22.18
2022-08-05T05:30:05.046Z,22.30
2022-08-05T05:32:07.519Z,22.51
2022-08-05T05:34:18.080Z,22.96
2022-08-05T05:36:28.755Z,22.37
2022-08-05T05:38:31.720Z,22.74
2022-08-05T05:40:35.762Z,22.67
2022-08-05T05:42:38.377Z,22.88
2022-08-05T05:44:45.851Z,23.25
2022-08-05T05:46:48.148Z,23.24
2022-08-05T05:48:53.056Z,23.47
2022-08-05T05:50:55.153Z,23.39
2022-08-05T05:52:57.262Z,23.66
2022-08-05T05:55:13.359Z,24.11
2022-08-05T05:57:19.384Z,23.72
2022-08-05T05:59:22.519Z,23.75
2022-08-05T06:01:26.878Z,24.05
2022-08-05T06:03:54.002Z,23.94
2022-08-05T06:06:01.166Z,24.04
2022-08-05T06:08:04.391Z,24.28
2022-08-05T06:10:10.151Z,24.95
2022-08-05T06:12:12.585Z,24.43
2022-08-05T06:14:17.583Z,24.27
2022-08-05T06:16:28.241Z,24.39
2022-08-05T06:18:33.336Z,25.26
2022-08-05T06:20:41.413Z,25.49
2022-08-05T06:22:49.852Z,25.18
2022-08-05T06:24:53.417Z,25.46
2022-08-05T06:26:55.475Z,25.03
2022-08-05T06:28:59.287Z,25.26
2022-08-05T06:31:11.068Z,25.76
2022-08-05T06:34:05.804Z,25.47
2022-08-05T06:36:05.824Z,25.00
2022-08-05T06:38:11.413Z,25.74
2022-08-05T06:40:18.384Z,25.70
2022-08-05T06:42:23.274Z,25.85
2022-08-05T06:44:27.982Z,26.15
2022-08-05T06:46:33.967Z,25.87
2022-08-05T06:48:56.261Z,26.35
2022-08-05T06:51:00.200Z,26.10
2022-08-05T06:53:22.303Z,26.34
2022-08-05T06:55:25.718Z,26.03
2022-08-05T06:57:58.031Z,26.02
2022-08-05T06:59:57.970Z,26.03
2022-08-05T07:02:00.247Z,25.90
2022-08-05T07:04:03.056Z,26.87
2022-08-05T07:06:15.072Z,26.49
2022-08-05T07:08:25.670Z,26.15
2022-08-05T07:10:32.471Z,26.23
2022-08-05T07:12:54.289Z,26.79
2022-08-05T07:15:34.222Z,26.33
2022-08-05T07:18:00.227Z,26.31
2022-08-05T07:22:28.482Z,27.19
2022-08-05T07:24:35.058Z,27.42
2022-08-05T07:26:47.479Z,27.39
2022-08-05T07:28:50.957Z,27.32
2022-08-05T07:30:55.096Z,27.81
2022-08-05T07:32:59.212Z,27.66
2022-08-05T07:35:01.132Z,27.83
2022-08-05T07:37:23.460Z,27.64
2022-08-05T07:40:04.274Z,28.36
2022-08-05T07:42:14.318Z,28.27
2022-08-05T07:44:18.968Z,28.03
2022-08-05T07:46:25.230Z,28.05
2022-08-05T07:49:00.405Z,28.43
2022-08-05T07:50:50.716Z,28.02
2022-08-05T07:52:52.722Z,27.69
2022-08-05T07:54:55.210Z,27.50
2022-08-05T07:57:02.295Z,27.82
2022-08-05T07:59:17.440Z,27.66
2022-08-05T08:01:26.861Z,27.50
2022-08-05T08:03:44.326Z,27.70
2022-08-05T08:05:51.316Z,27.89
2022-08-05T08:07:59.489Z,27.88
2022-08-05T08:10:03.172Z,27.77
2022-08-05T08:12:14.356Z,27.45
2022-08-05T08:14:22.111Z,27.55
2022-08-05T08:16:35.713Z,27.31
2022-08-05T08:18:50.265Z,27.97
2022-08-05T08:21:03.393Z,27.82
2022-08-05T08:24:00.387Z,27.69
2022-08-05T08:26:00.031Z,27.64
2022-08-05T08:27:51.769Z,27.75
2022-08-05T08:30:05.767Z,27.74
2022-08-05T08:32:16.905Z,28.20
2022-08-05T08:34:30.749Z,28.51
2022-08-05T08:36:48.856Z,28.36
2022-08-05T08:38:56.825Z,28.54
2022-08-05T08:41:01.624Z,28.35
2022-08-05T08:45:19.551Z,28.02
2022-08-05T08:45:29.845Z,28.24
2022-08-05T08:48:07.649Z,28.13
2022-08-05T08:50:23.438Z,27.68
2022-08-05T08:52:25.958Z,28.27
2022-08-05T08:54:34.086Z,28.59
2022-08-05T08:56:47.865Z,28.91
2022-08-05T08:58:52.936Z,28.34
2022-08-05T09:00:54.956Z,28.48
2022-08-05T09:02:58.146Z,28.42
2022-08-05T09:05:17.944Z,28.90
2022-08-05T09:07:29.203Z,28.69
2022-08-05T09:09:43.010Z,28.45
2022-08-05T09:11:53.760Z,28.34
2022-08-05T09:14:09.484Z,28.34
2022-08-05T09:16:21.916Z,28.25
2022-08-05T09:18:29.176Z,28.56
2022-08-05T09:20:37.435Z,28.46
2022-08-05T09:23:18.754Z,28.45
2022-08-05T09:25:24.275Z,28.92
2022-08-05T09:28:03.899Z,28.64
2022-08-05T09:30:07.605Z,29.00
2022-08-05T09:32:41.065Z,28.88
2022-08-05T09:34:55.486Z,28.49
2022-08-05T09:36:59.215Z,28.74
2022-08-05T09:39:16.416Z,29.08
2022-08-05T09:41:20.426Z,28.76
2022-08-05T09:43:41.773Z,28.99
2022-08-05T09:46:07.105Z,28.71
2022-08-05T09:48:33.271Z,28.37
2022-08-05T09:50:43.560Z,28.75
2022-08-05T09:52:52.971Z,29.03
2022-08-05T09:55:57.524Z,28.54
2022-08-05T09:57:35.186Z,29.02
2022-08-05T09:59:37.459Z,28.70
2022-08-05T10:01:45.792Z,28.87
2022-08-05T10:04:34.865Z,29.01
2022-08-05T10:06:40.758Z,28.77
2022-08-05T10:08:43.071Z,28.62
2022-08-05T10:10:54.122Z,28.96
2022-08-05T10:12:59.395Z,29.08
2022-08-05T10:15:16.409Z,29.31
2022-08-05T10:17:37.935Z,29.03
2022-08-05T10:20:03.577Z,28.45
2022-08-05T10:22:04.919Z,28.47
2022-08-05T10:24:13.784Z,28.66
2022-08-05T10:26:17.220Z,28.49
2022-08-05T10:28:29.336Z,28.38
2022-08-05T10:32:46.715Z,28.31
2022-08-05T10:33:01.462Z,28.02
2022-08-05T10:35:07.681Z,28.22
2022-08-05T10:37:13.040Z,28.35
2022-08-05T10:39:24.907Z,28.25
2022-08-05T10:41:54.994Z,28.22
2022-08-05T10:44:11.761Z,28.28
2022-08-05T10:46:18.499Z,28.23
2022-08-05T10:48:36.013Z,28.13
2022-08-05T10:51:21.913Z,28.35
2022-08-05T10:53:38.140Z,28.40
2022-08-05T10:56:21.394Z,28.22
2022-08-05T10:58:47.868Z,28.25
2022-08-05T11:00:55.289Z,28.67
2022-08-05T11:03:22.763Z,28.34
2022-08-05T11:05:29.090Z,28.61
2022-08-05T11:08:02.439Z,28.46
2022-08-05T11:10:04.057Z,28.16
2022-08-05T11:12:42.433Z,28.52
2022-08-05T11:15:01.526Z,28.39
2022-08-05T11:18:00.348Z,28.67
2022-08-05T11:20:10.166Z,28.50
2022-08-05T11:22:44.399Z,28.52
2022-08-05T11:26:04.555Z,28.50
2022-08-05T11:28:17.147Z,28.64
2022-08-05T11:30:22.147Z,28.70
2022-08-05T11:32:31.582Z,28.59
2022-08-05T11:34:51.103Z,28.60
2022-08-05T11:36:54.576Z,28.54
2022-08-05T11:39:03.606Z,28.77
2022-08-05T11:41:56.155Z,28.74
2022-08-05T11:44:06.575Z,28.62
2022-08-05T11:46:23.447Z,28.72
2022-08-05T11:48:28.892Z,28.37
2022-08-05T11:50:38.674Z,28.52
2022-08-05T11:52:41.395Z,28.51
2022-08-05T11:54:54.993Z,28.55
2022-08-05T11:56:58.952Z,28.72
2022-08-05T11:59:03.140Z,28.97
2022-08-05T12:01:22.079Z,28.84
2022-08-05T12:03:31.432Z,28.73
2022-08-05T12:05:39.903Z,28.71
2022-08-05T12:08:03.824Z,28.85
2022-08-05T12:10:13.864Z,28.89
2022-08-05T12:12:30.332Z,28.78
2022-08-05T12:14:43.229Z,28.69
2022-08-05T12:16:50.378Z,28.48
2022-08-05T12:18:53.469Z,28.78
2022-08-05T12:20:55.601Z,28.95
2022-08-05T12:23:11.716Z,28.88
2022-08-05T12:25:14.308Z,28.85
2022-08-05T12:27:25.445Z,28.70
2022-08-05T12:29:38.819Z,28.95
2022-08-05T12:31:50.229Z,28.84
2022-08-05T12:33:57.524Z,28.82
2022-08-05T12:36:02.705Z,28.82
2022-08-05T12:38:07.417Z,28.73
2022-08-05T12:40:26.436Z,28.92
2022-08-05T12:42:30.858Z,29.01
2022-08-05T12:44:34.422Z,28.82
2022-08-05T12:46:38.224Z,28.96
2022-08-05T12:48:40.504Z,28.87
2022-08-05T12:50:42.528Z,28.85
2022-08-05T12:52:57.947Z,28.96
2022-08-05T12:54:59.997Z,29.06
2022-08-05T12:57:09.303Z,29.19
2022-08-05T12:59:20.779Z,29.35
2022-08-05T13:02:00.488Z,29.51
2022-08-05T13:03:49.184Z,29.20
2022-08-05T13:05:54.128Z,29.34
2022-08-05T13:08:00.651Z,29.12
2022-08-05T13:10:03.172Z,29.18
2022-08-05T13:12:13.244Z,29.30
2022-08-05T13:14:20.097Z,29.36
2022-08-05T13:16:25.236Z,29.43
2022-08-05T13:18:39.022Z,29.43
2022-08-05T13:20:41.862Z,29.37
2022-08-05T13:22:51.322Z,29.43
2022-08-05T13:24:57.995Z,29.46
2022-08-05T13:27:04.719Z,29.26
2022-08-05T13:29:06.652Z,29.29
2022-08-05T13:31:13.950Z,29.23
2022-08-05T13:34:22.020Z,29.38
2022-08-05T13:35:42.877Z,29.40
2022-08-05T13:37:55.679Z,29.40
2022-08-05T13:40:35.559Z,29.62
2022-08-05T13:42:23.789Z,29.45
2022-08-05T13:44:27.156Z,29.57
2022-08-05T13:46:44.014Z,29.50
2022-08-05T13:48:58.677Z,29.54
2022-08-05T13:51:07.733Z,29.55
2022-08-05T13:53:17.407Z,29.45
2022-08-05T13:55:40.746Z,29.54
2022-08-05T13:57:49.075Z,29.44
2022-08-05T13:59:57.128Z,29.52
2022-08-05T14:02:01.626Z,29.53
2022-08-05T14:04:26.640Z,29.48
2022-08-05T14:06:28.899Z,29.43
2022-08-05T14:08:32.313Z,29.61
2022-08-05T14:10:39.217Z,29.44
2022-08-05T14:12:42.805Z,29.57
2022-08-05T14:14:54.826Z,29.72
2022-08-05T14:16:57.544Z,29.90
2022-08-05T14:19:04.553Z,29.81
2022-08-05T14:22:06.714Z,29.87
2022-08-05T14:23:36.632Z,29.74
2022-08-05T14:25:45.038Z,29.77
2022-08-05T14:27:51.117Z,29.92
2022-08-05T14:29:53.036Z,29.71
2022-08-05T14:32:12.155Z,29.81
2022-08-05T14:34:17.390Z,29.83
2022-08-05T14:36:20.583Z,30.08
2022-08-05T14:38:32.094Z,30.02
2022-08-05T14:40:40.379Z,29.75
2022-08-05T14:42:45.897Z,29.93
2022-08-05T14:44:47.959Z,30.11
2022-08-05T14:46:49.958Z,30.09
2022-08-05T14:48:51.878Z,30.07
2022-08-05T14:50:54.829Z,30.10
2022-08-05T14:52:59.129Z,29.93
2022-08-05T14:55:01.627Z,29.61
2022-08-05T14:57:09.780Z,29.59
2022-08-05T14:59:16.027Z,29.70
2022-08-05T15:01:47.057Z,29.81
2022-08-05T15:03:42.291Z,29.75
2022-08-05T15:06:07.878Z,30.02
2022-08-05T15:08:15.856Z,29.88
2022-08-05T15:10:28.907Z,29.84
2022-08-05T15:12:51.356Z,29.74
2022-08-05T15:14:53.195Z,29.67
2022-08-05T15:16:59.107Z,29.81
2022-08-05T15:19:01.520Z,29.75
2022-08-05T15:21:07.395Z,29.89
2022-08-05T15:23:12.066Z,29.97
2022-08-05T15:25:14.725Z,29.87
2022-08-05T15:27:18.844Z,29.82
2022-08-05T15:29:21.985Z,29.89
2022-08-05T15:31:24.773Z,29.69
2022-08-05T15:34:04.045Z,29.63
2022-08-05T15:36:00.107Z,29.57
2022-08-05T15:38:34.455Z,29.45
2022-08-05T15:41:01.027Z,29.50
2022-08-05T15:42:57.662Z,29.56
2022-08-05T15:45:00.515Z,29.44
2022-08-05T15:47:03.914Z,29.47
2022-08-05T15:49:09.904Z,29.33
2022-08-05T15:51:13.479Z,29.38
2022-08-05T15:53:16.985Z,29.40
2022-08-05T15:55:20.051Z,29.38
2022-08-05T15:57:27.162Z,29.45
2022-08-05T15:59:36.107Z,29.51
2022-08-05T16:01:39.715Z,29.45
2022-08-05T16:03:54.274Z,29.47
2022-08-05T16:05:56.411Z,29.55
2022-08-05T16:08:01.046Z,29.55
2022-08-05T16:10:04.458Z,29.51
2022-08-05T16:12:11.587Z,29.43
2022-08-05T16:14:17.099Z,29.47
2022-08-05T16:16:25.163Z,29.52
2022-08-05T16:18:28.034Z,29.51
2022-08-05T16:20:33.352Z,29.53
2022-08-05T16:22:36.788Z,29.55
2022-08-05T16:24:51.651Z,29.56
2022-08-05T16:26:57.039Z,29.45
2022-08-05T16:28:59.152Z,29.40
2022-08-05T16:31:01.130Z,29.39
2022-08-05T16:33:03.622Z,29.40
2022-08-05T16:35:09.909Z,29.35
2022-08-05T16:38:02.870Z,29.38
2022-08-05T16:40:06.048Z,29.36
2022-08-05T16:42:13.717Z,29.26
2022-08-05T16:44:18.918Z,29.30
2022-08-05T16:46:24.458Z,29.12
2022-08-05T16:48:33.505Z,29.19
2022-08-05T16:50:38.045Z,29.23
2022-08-05T16:52:40.032Z,29.24
2022-08-05T16:54:50.203Z,29.19
2022-08-05T16:56:52.387Z,29.15
2022-08-05T16:58:56.728Z,29.13
2022-08-05T17:01:00.061Z,29.18
2022-08-05T17:03:15.134Z,29.17
2022-08-05T17:05:23.211Z,29.07
2022-08-05T17:07:39.139Z,29.02
2022-08-05T17:09:57.864Z,29.07
2022-08-05T17:12:00.907Z,29.03
2022-08-05T17:14:05.708Z,28.96
2022-08-05T17:16:32.656Z,28.95
2022-08-05T17:18:33.551Z,28.95
2022-08-05T17:20:36.939Z,28.91
2022-08-05T17:22:40.391Z,28.67
2022-08-05T17:24:56.763Z,28.63
2022-08-05T17:27:01.350Z,28.46
2022-08-05T17:29:04.363Z,28.25
2022-08-05T17:31:24.650Z,28.16
2022-08-05T17:33:38.867Z,28.08
2022-08-05T17:36:07.375Z,28.22
2022-08-05T17:38:13.089Z,27.84
2022-08-05T17:40:22.569Z,28.02
2022-08-05T17:42:30.104Z,27.66
2022-08-05T17:44:35.553Z,27.40
2022-08-05T17:46:37.472Z,27.11
2022-08-05T17:48:43.314Z,27.06
2022-08-05T17:50:46.962Z,27.18
2022-08-05T17:52:54.974Z,26.28
2022-08-05T17:54:57.026Z,25.88
2022-08-05T17:56:58.955Z,25.93
2022-08-05T17:59:00.938Z,26.00
2022-08-05T18:01:08.168Z,25.61
2022-08-05T18:03:24.132Z,25.46
2022-08-05T18:05:39.263Z,25.17
2022-08-05T18:07:42.402Z,25.23
2022-08-05T18:09:59.832Z,25.10
2022-08-05T18:12:05.317Z,24.87
2022-08-05T18:14:07.575Z,24.66
2022-08-05T18:16:20.302Z,24.54
2022-08-05T18:18:22.766Z,24.18
2022-08-05T18:20:35.961Z,24.18
2022-08-05T18:22:54.170Z,23.99
2022-08-05T18:24:57.047Z,24.11
2022-08-05T18:27:00.069Z,23.99
2022-08-05T18:29:01.991Z,23.96
2022-08-05T18:31:06.297Z,23.89
2022-08-05T18:33:17.705Z,23.85
2022-08-05T18:35:49.407Z,23.72
2022-08-05T18:37:47.421Z,23.99
2022-08-05T18:40:31.215Z,24.15
2022-08-05T18:42:13.206Z,24.70
2022-08-05T18:44:33.099Z,24.68
2022-08-05T18:46:37.634Z,24.40
2022-08-05T18:48:45.102Z,24.65
2022-08-05T18:52:06.302Z,24.74
2022-08-05T18:53:34.683Z,24.91
2022-08-05T18:55:47.258Z,24.83
2022-08-05T18:57:53.246Z,24.80
2022-08-05T19:00:03.287Z,24.62
2022-08-05T19:02:11.442Z,24.63
2022-08-05T19:04:30.434Z,24.54
2022-08-05T19:06:44.846Z,24.46
2022-08-05T19:08:48.338Z,24.39
2022-08-05T19:10:51.038Z,24.34
2022-08-05T19:12:53.490Z,24.37
2022-08-05T19:15:00.676Z,24.39
2022-08-05T19:17:06.425Z,24.37
2022-08-05T19:19:13.927Z,24.09
2022-08-05T19:21:17.906Z,24.03
2022-08-05T19:24:03.878Z,23.65
2022-08-05T19:25:46.406Z,23.48
2022-08-05T19:27:50.135Z,23.58
2022-08-05T19:29:54.527Z,23.43
2022-08-05T19:31:59.250Z,23.23
2022-08-05T19:34:02.513Z,22.95
2022-08-05T19:36:09.005Z,22.87
2022-08-05T19:38:11.239Z,22.77
2022-08-05T19:40:16.550Z,22.56
2022-08-05T19:42:35.553Z,22.39
2022-08-05T19:44:44.999Z,22.58
2022-08-05T19:46:50.293Z,22.96
2022-08-05T19:48:56.455Z,22.57
2022-08-05T19:50:58.720Z,22.60
2022-08-05T19:53:09.518Z,22.32
2022-08-05T19:56:12.595Z,21.99
2022-08-05T19:57:47.414Z,21.84
2022-08-05T20:00:02.554Z,21.76
2022-08-05T20:02:08.739Z,21.88
2022-08-05T20:04:13.270Z,21.73
2022-08-05T20:06:28.886Z,21.59
2022-08-05T20:08:34.833Z,21.64
2022-08-05T20:10:39.273Z,21.90
2022-08-05T20:12:48.557Z,21.75
2022-08-05T20:14:53.144Z,22.00
2022-08-05T20:17:06.252Z,22.04
2022-08-05T20:19:11.627Z,22.01
2022-08-05T20:21:17.770Z,22.31
2022-08-05T20:23:24.032Z,22.33
2022-08-05T20:25:42.807Z,22.58
2022-08-05T20:27:44.891Z,22.27
2022-08-05T20:29:57.573Z,22.31
2022-08-05T20:32:00.854Z,22.48
2022-08-05T20:34:06.043Z,22.45
2022-08-05T20:36:11.313Z,22.38
2022-08-05T20:38:22.656Z,22.25
2022-08-05T20:40:29.960Z,22.46
2022-08-05T20:42:35.422Z,22.46
2022-08-05T20:44:45.597Z,22.34
2022-08-05T20:46:49.998Z,22.13
2022-08-05T20:48:59.753Z,21.74
2022-08-05T20:51:08.139Z,21.66
2022-08-05T20:53:16.328Z,21.64
2022-08-05T20:55:56.886Z,21.77
2022-08-05T20:57:56.029Z,22.04
2022-08-05T21:00:20.532Z,21.93
2022-08-05T21:02:21.066Z,22.03
2022-08-05T21:04:30.443Z,21.91
2022-08-05T21:06:32.339Z,21.89
2022-08-05T21:08:41.770Z,21.95
2022-08-05T21:10:48.917Z,21.83
2022-08-05T21:13:08.757Z,21.84
2022-08-05T21:15:17.421Z,21.95
2022-08-05T21:17:19.697Z,21.62
2022-08-05T21:19:23.909Z,21.83
2022-08-05T21:21:26.011Z,21.86
2022-08-05T21:23:42.893Z,21.79
2022-08-05T21:25:45.853Z,21.84
2022-08-05T21:27:53.238Z,21.88
2022-08-05T21:29:56.664Z,21.86
2022-08-05T21:31:58.943Z,21.98
2022-08-05T21:34:01.867Z,21.98
2022-08-05T21:36:09.730Z,22.00
2022-08-05T21:38:12.014Z,22.07
2022-08-05T21:40:16.590Z,22.06
2022-08-05T21:42:41.415Z,22.02
2022-08-05T21:44:42.333Z,21.99
2022-08-05T21:46:46.688Z,22.08
2022-08-05T21:48:56.757Z,21.99
2022-08-05T21:51:00.008Z,21.98
2022-08-05T21:53:04.738Z,21.86
2022-08-05T21:55:42.668Z,21.84
2022-08-05T21:57:43.020Z,21.69
2022-08-05T22:00:02.052Z,21.75
2022-08-05T22:02:07.042Z,21.70
2022-08-05T22:04:13.528Z,21.66
2022-08-05T22:06:22.880Z,21.72
2022-08-05T22:08:35.519Z,21.69
2022-08-05T22:10:38.528Z,21.68
2022-08-05T22:12:40.542Z,21.74
2022-08-05T22:14:49.149Z,21.71
2022-08-05T22:16:57.038Z,21.76
2022-08-05T22:19:02.272Z,21.70
2022-08-05T22:21:11.222Z,21.73
2022-08-05T22:24:01.346Z,21.77
2022-08-05T22:26:23.254Z,21.81
2022-08-05T22:28:26.320Z,21.85
2022-08-05T22:30:55.252Z,21.87
2022-08-05T22:32:59.893Z,21.85
2022-08-05T22:35:04.252Z,21.91
2022-08-05T22:37:06.532Z,21.91
2022-08-05T22:39:09.358Z,21.89
2022-08-05T22:41:11.919Z,21.87
2022-08-05T22:43:36.580Z,21.90
2022-08-05T22:45:39.624Z,21.86
2022-08-05T22:47:49.839Z,21.83
2022-08-05T22:50:22.822Z,21.84
2022-08-05T22:52:32.119Z,21.88
2022-08-05T22:54:37.338Z,21.85
2022-08-05T22:56:40.754Z,21.87
2022-08-05T22:58:43.732Z,21.90
2022-08-05T23:00:45.985Z,21.87
2022-08-05T23:02:53.673Z,21.79
2022-08-05T23:04:58.181Z,21.75
2022-08-05T23:07:07.270Z,21.69
2022-08-05T23:09:14.676Z,21.73
2022-08-05T23:11:30.170Z,21.69
2022-08-05T23:13:33.272Z,21.72
2022-08-05T23:15:37.573Z,21.66
2022-08-05T23:18:01.699Z,21.71
2022-08-05T23:20:15.525Z,21.67
2022-08-05T23:22:28.918Z,21.68
2022-08-05T23:24:31.001Z,21.66
2022-08-05T23:26:33.069Z,21.63
2022-08-05T23:28:35.473Z,21.53
2022-08-05T23:30:39.948Z,21.49
2022-08-05T23:32:46.699Z,21.49
2022-08-05T23:34:52.392Z,21.53
2022-08-05T23:36:54.871Z,21.47
2022-08-05T23:38:56.928Z,21.41
2022-08-05T23:40:58.846Z,21.40
2022-08-05T23:43:24.279Z,21.37
2022-08-05T23:45:26.276Z,21.38
2022-08-05T23:47:28.118Z,21.33
2022-08-05T23:49:37.616Z,21.35
2022-08-05T23:51:59.648Z,21.27
2022-08-05T23:54:03.567Z,21.18
2022-08-05T23:56:08.330Z,20.94
2022-08-05T23:58:31.614Z,20.88
